createdAt,value
2019-05-29T00:05:28.939Z,64.8
2019-05-29T00:22:15.325Z,64.8
2019-05-29T00:39:01.864Z,64.4
2019-05-29T00:55:48.050Z,64.4
2019-05-29T01:12:34.262Z,64.4
2019-05-29T01:29:21.139Z,64.4
2019-05-29T01:46:06.689Z,64.4
2019-05-29T02:02:52.772Z,63.6
2019-05-29T02:19:38.914Z,63.6
2019-05-29T02:36:27.157Z,63.6
2019-05-29T02:53:11.054Z,63.6
2019-05-29T03:09:57.085Z,63.6
2019-05-29T03:26:42.927Z,63.6
2019-05-29T03:43:30.879Z,63.6
2019-05-29T04:00:14.675Z,63.6
2019-05-29T04:17:00.813Z,63.6
2019-05-29T04:33:46.278Z,63.6
2019-05-29T04:50:33.502Z,63.2
2019-05-29T05:07:18.200Z,63.2
2019-05-29T05:15:41.635Z,62.8
2019-05-29T05:25:45.982Z,62.0
2019-05-29T05:40:53.067Z,60.0
2019-05-29T05:54:19.909Z,57.6
2019-05-29T06:11:08.428Z,56.4
2019-05-29T06:27:57.186Z,57.2
2019-05-29T06:44:48.623Z,57.6
2019-05-29T07:01:35.223Z,58.4
2019-05-29T07:18:22.673Z,58.8
2019-05-29T07:35:12.711Z,58.8
2019-05-29T07:51:59.959Z,58.8
2019-05-29T08:08:49.529Z,58.8
2019-05-29T08:25:37.582Z,58.8
2019-05-29T08:42:26.420Z,58.8
2019-05-29T08:59:15.422Z,58.8
2019-05-29T09:16:04.560Z,58.8
2019-05-29T09:32:53.507Z,58.8
2019-05-29T09:49:42.297Z,59.6
2019-05-29T10:06:31.381Z,59.6
2019-05-29T10:23:20.954Z,59.6
2019-05-29T10:56:59.135Z,59.2
2019-05-29T11:13:48.722Z,59.2
2019-05-29T11:30:38.102Z,58.8
2019-05-29T11:47:30.305Z,58.8
2019-05-29T12:04:25.501Z,58.4
2019-05-29T12:21:07.165Z,58.0
2019-05-29T12:37:57.374Z,58.0
2019-05-29T12:54:47.217Z,57.2
2019-05-29T13:11:37.328Z,57.2
2019-05-29T13:28:27.446Z,57.6
2019-05-29T13:45:18.704Z,57.6
2019-05-29T14:02:10.217Z,57.6
2019-05-29T14:19:00.964Z,57.6
2019-05-29T14:35:49.023Z,57.6
2019-05-29T14:52:40.019Z,57.6
2019-05-29T15:09:28.668Z,57.6
2019-05-29T15:26:18.847Z,56.4
2019-05-29T15:33:02.921Z,54.0
2019-05-29T15:39:46.878Z,52.0
2019-05-29T15:48:13.124Z,50.0
2019-05-29T16:05:01.563Z,48.4
2019-05-29T16:18:29.828Z,50.4
2019-05-29T16:28:35.332Z,52.4
2019-05-29T16:45:25.298Z,53.2
2019-05-29T17:02:15.629Z,54.4
2019-05-29T17:19:05.111Z,54.4
2019-05-29T17:35:55.326Z,54.8
2019-05-29T17:52:45.103Z,55.2
2019-05-29T18:09:34.667Z,54.8
2019-05-29T18:26:24.357Z,55.2
2019-05-29T18:43:13.685Z,55.2
2019-05-29T19:00:03.609Z,55.6
2019-05-29T19:16:52.028Z,55.6
2019-05-29T19:33:41.186Z,54.4
2019-05-29T19:50:30.883Z,54.8
2019-05-29T20:07:19.223Z,54.4
2019-05-29T20:24:08.044Z,54.4
2019-05-29T20:40:56.833Z,54.4
2019-05-29T20:57:45.686Z,54.0
2019-05-29T21:14:35.449Z,55.2
2019-05-29T21:31:22.039Z,55.6
2019-05-29T21:48:09.884Z,56.4
2019-05-29T22:04:57.533Z,56.4
2019-05-29T22:21:45.293Z,56.8
2019-05-29T22:38:33.130Z,57.6
2019-05-29T22:55:20.781Z,57.6
2019-05-29T23:12:08.503Z,57.2
2019-05-29T23:28:56.865Z,58.0
2019-05-29T23:45:43.741Z,58.0
